Terminal Aerodrome Forecast
Issued by NWS

Home | Current Version | Previous Version | Text Only | Print | Product List | Glossary Off
Versions: 1 2 3 4 5 6 7 8 9 10 11 12 13 14 15

000
FTUS43 KMPX 130500
TAFRWF
TAF
KRWF 130533Z 1306/1406 26003KT P6SM FEW090
      TEMPO 1306/1308 4SM BR
     FM130900 29007KT P6SM SCT090
     FM131300 31012KT P6SM SKC
     FM131700 31014G20KT P6SM FEW060
     FM140000 32006KT P6SM SKC=

USA.gov is the U.S. government's official web portal to all federal, state and local government web resources and services.